KMLS/MLS METAR and TAF weather

Enter ICAO airport designator
Station Type Date Time Source
KMLS METAR 2020/03/31 05:53 UTC NOAA

KMLS 310553Z AUTO 16007KT 10SM BKN110 07/M03 A2981 RMK AO2 SLP096 T00671033 10172 20067 58009


Station Type Date Time Source
KMLS Decoded METAR 2020/03/31 05:53 UTC NOAA

MILES CITY WILEY FIELD, MT, United States (KMLS) 46-26N 105-53W 801M
Mar 31, 2020 - 01:53 AM EDT / 2020.03.31 0553 UTC
Wind: from the SSE (160 degrees) at 8 MPH (7 KT):0
Visibility: 10 mile(s):0
Sky conditions: mostly cloudy
Temperature: 44.1 F (6.7 C)
Dew Point: 26.1 F (-3.3 C)
Relative Humidity: 48%
Pressure (altimeter): 29.81 in. Hg (1009 hPa)
Pressure tendency: 0.03 inches (0.9 hPa) lower than three hours ago
ob: KMLS 310553Z AUTO 16007KT 10SM BKN110 07/M03 A2981 RMK AO2 SLP096 T00671033 10172 20067 58009
cycle: 6

Station Type Date Time Source
KMLS TAF 2020/03/31 06:39 UTC NOAA

TAF KMLS 310537Z 3106/0106 17007KT P6SM SCT100 BKN200
FM311300 33011KT P6SM VCSH FEW040 BKN080
FM311800 30011KT P6SM BKN040 OVC120
FM312300 04015KT P6SM VCSH BKN035 OVC070
FM010400 07008KT 5SM -SHRASN BKN020 OVC040

Example: see airport list